sensor_id;sensor_type;location;lat;lon;timestamp;temperature;humidity
37658;DHT22;23500;53.268;8.308;2023-04-22T00:01:32;17.30;58.30
37658;DHT22;23500;53.268;8.308;2023-04-22T00:03:57;17.30;58.30
37658;DHT22;23500;53.268;8.308;2023-04-22T00:06:23;17.30;58.40
37658;DHT22;23500;53.268;8.308;2023-04-22T00:08:49;17.20;58.10
37658;DHT22;23500;53.268;8.308;2023-04-22T00:11:14;17.20;58.50
37658;DHT22;23500;53.268;8.308;2023-04-22T00:13:40;17.20;58.50
37658;DHT22;23500;53.268;8.308;2023-04-22T00:16:06;17.20;58.50
37658;DHT22;23500;53.268;8.308;2023-04-22T00:18:35;17.20;58.20
37658;DHT22;23500;53.268;8.308;2023-04-22T00:21:01;17.20;58.40
37658;DHT22;23500;53.268;8.308;2023-04-22T00:23:27;17.20;58.60
37658;DHT22;23500;53.268;8.308;2023-04-22T00:25:53;17.20;58.40
37658;DHT22;23500;53.268;8.308;2023-04-22T00:28:18;17.20;58.90
37658;DHT22;23500;53.268;8.308;2023-04-22T00:30:44;17.20;58.50
37658;DHT22;23500;53.268;8.308;2023-04-22T00:33:10;17.20;58.80
37658;DHT22;23500;53.268;8.308;2023-04-22T00:35:36;17.20;58.70
37658;DHT22;23500;53.268;8.308;2023-04-22T00:38:01;17.20;58.80
37658;DHT22;23500;53.268;8.308;2023-04-22T00:40:27;17.20;58.70
37658;DHT22;23500;53.268;8.308;2023-04-22T00:42:53;17.20;58.70
37658;DHT22;23500;53.268;8.308;2023-04-22T00:45:20;17.20;59.70
37658;DHT22;23500;53.268;8.308;2023-04-22T00:47:46;17.20;59.30
37658;DHT22;23500;53.268;8.308;2023-04-22T00:50:12;17.20;59.60
37658;DHT22;23500;53.268;8.308;2023-04-22T00:52:38;17.20;59.60
37658;DHT22;23500;53.268;8.308;2023-04-22T00:55:04;17.20;59.60
37658;DHT22;23500;53.268;8.308;2023-04-22T00:57:31;17.20;59.40
37658;DHT22;23500;53.268;8.308;2023-04-22T00:59:58;17.20;59.50
37658;DHT22;23500;53.268;8.308;2023-04-22T01:02:24;17.20;59.30
37658;DHT22;23500;53.268;8.308;2023-04-22T01:04:50;17.20;59.30
37658;DHT22;23500;53.268;8.308;2023-04-22T01:07:18;17.20;59.60
37658;DHT22;23500;53.268;8.308;2023-04-22T01:09:45;17.20;59.70
37658;DHT22;23500;53.268;8.308;2023-04-22T01:12:10;17.20;59.60
37658;DHT22;23500;53.268;8.308;2023-04-22T01:14:36;17.20;59.50
37658;DHT22;23500;53.268;8.308;2023-04-22T01:17:02;17.10;59.90
37658;DHT22;23500;53.268;8.308;2023-04-22T01:19:28;17.10;60.00
37658;DHT22;23500;53.268;8.308;2023-04-22T01:21:55;17.10;60.00
37658;DHT22;23500;53.268;8.308;2023-04-22T01:24:21;17.10;60.00
37658;DHT22;23500;53.268;8.308;2023-04-22T01:26:47;17.10;59.80
37658;DHT22;23500;53.268;8.308;2023-04-22T01:29:14;17.10;59.60
37658;DHT22;23500;53.268;8.308;2023-04-22T01:31:39;17.10;59.50
37658;DHT22;23500;53.268;8.308;2023-04-22T01:34:05;17.10;59.70
37658;DHT22;23500;53.268;8.308;2023-04-22T01:36:31;17.10;59.80
37658;DHT22;23500;53.268;8.308;2023-04-22T01:38:58;17.10;59.80
37658;DHT22;23500;53.268;8.308;2023-04-22T01:41:24;17.10;59.60
37658;DHT22;23500;53.268;8.308;2023-04-22T01:43:51;17.10;59.60
37658;DHT22;23500;53.268;8.308;2023-04-22T01:46:18;17.10;59.70
37658;DHT22;23500;53.268;8.308;2023-04-22T01:48:43;17.10;59.60
37658;DHT22;23500;53.268;8.308;2023-04-22T01:51:15;17.10;59.60
37658;DHT22;23500;53.268;8.308;2023-04-22T01:53:42;17.10;59.70
37658;DHT22;23500;53.268;8.308;2023-04-22T01:56:07;17.10;59.70
37658;DHT22;23500;53.268;8.308;2023-04-22T01:58:33;17.10;59.80
37658;DHT22;23500;53.268;8.308;2023-04-22T02:01:00;17.00;59.80
37658;DHT22;23500;53.268;8.308;2023-04-22T02:03:25;17.10;60.00
37658;DHT22;23500;53.268;8.308;2023-04-22T02:05:51;17.00;59.90
37658;DHT22;23500;53.268;8.308;2023-04-22T02:08:17;17.00;59.80
37658;DHT22;23500;53.268;8.308;2023-04-22T02:10:42;17.00;59.90
37658;DHT22;23500;53.268;8.308;2023-04-22T02:13:08;17.00;59.80
37658;DHT22;23500;53.268;8.308;2023-04-22T02:15:33;17.00;59.80
37658;DHT22;23500;53.268;8.308;2023-04-22T02:18:00;17.00;60.00
37658;DHT22;23500;53.268;8.308;2023-04-22T02:20:26;17.00;59.90
37658;DHT22;23500;53.268;8.308;2023-04-22T02:22:52;17.00;60.00
37658;DHT22;23500;53.268;8.308;2023-04-22T02:25:18;17.00;59.80
37658;DHT22;23500;53.268;8.308;2023-04-22T02:27:43;17.00;59.90
37658;DHT22;23500;53.268;8.308;2023-04-22T02:30:09;17.00;59.60
37658;DHT22;23500;53.268;8.308;2023-04-22T02:32:35;17.00;60.50
37658;DHT22;23500;53.268;8.308;2023-04-22T02:35:03;17.00;59.80
37658;DHT22;23500;53.268;8.308;2023-04-22T02:37:29;17.00;59.90
37658;DHT22;23500;53.268;8.308;2023-04-22T02:39:55;16.90;59.60
37658;DHT22;23500;53.268;8.308;2023-04-22T02:42:21;17.00;59.70
37658;DHT22;23500;53.268;8.308;2023-04-22T02:44:46;16.90;59.60
37658;DHT22;23500;53.268;8.308;2023-04-22T02:47:12;16.90;59.80
37658;DHT22;23500;53.268;8.308;2023-04-22T02:49:38;16.90;59.80
37658;DHT22;23500;53.268;8.308;2023-04-22T02:52:04;16.90;59.70
37658;DHT22;23500;53.268;8.308;2023-04-22T02:54:30;16.90;59.80
37658;DHT22;23500;53.268;8.308;2023-04-22T02:56:55;16.90;59.80
37658;DHT22;23500;53.268;8.308;2023-04-22T02:59:22;16.90;59.90
37658;DHT22;23500;53.268;8.308;2023-04-22T03:01:48;16.90;59.80
37658;DHT22;23500;53.268;8.308;2023-04-22T03:04:14;16.90;59.80
37658;DHT22;23500;53.268;8.308;2023-04-22T03:06:40;16.90;59.90
37658;DHT22;23500;53.268;8.308;2023-04-22T03:09:05;16.90;60.10
37658;DHT22;23500;53.268;8.308;2023-04-22T03:11:31;16.90;60.00
37658;DHT22;23500;53.268;8.308;2023-04-22T03:13:57;16.90;60.00
37658;DHT22;23500;53.268;8.308;2023-04-22T03:16:23;16.90;60.10
37658;DHT22;23500;53.268;8.308;2023-04-22T03:18:49;16.90;60.50
37658;DHT22;23500;53.268;8.308;2023-04-22T03:21:14;16.80;59.90
37658;DHT22;23500;53.268;8.308;2023-04-22T03:23:40;16.80;60.10
37658;DHT22;23500;53.268;8.308;2023-04-22T03:26:06;16.80;60.10
37658;DHT22;23500;53.268;8.308;2023-04-22T03:28:31;16.80;60.20
37658;DHT22;23500;53.268;8.308;2023-04-22T03:30:57;16.80;60.20
37658;DHT22;23500;53.268;8.308;2023-04-22T03:33:23;16.80;60.20
37658;DHT22;23500;53.268;8.308;2023-04-22T03:35:48;16.80;60.20
37658;DHT22;23500;53.268;8.308;2023-04-22T03:38:14;16.80;60.00
37658;DHT22;23500;53.268;8.308;2023-04-22T03:40:41;16.80;60.30
37658;DHT22;23500;53.268;8.308;2023-04-22T03:43:07;16.80;60.60
37658;DHT22;23500;53.268;8.308;2023-04-22T03:45:33;16.80;60.40
37658;DHT22;23500;53.268;8.308;2023-04-22T03:47:59;16.80;60.10
37658;DHT22;23500;53.268;8.308;2023-04-22T03:50:24;16.80;60.20
37658;DHT22;23500;53.268;8.308;2023-04-22T03:52:50;16.80;60.10
37658;DHT22;23500;53.268;8.308;2023-04-22T03:55:15;16.80;60.30
37658;DHT22;23500;53.268;8.308;2023-04-22T03:57:41;16.80;60.30
37658;DHT22;23500;53.268;8.308;2023-04-22T04:00:07;16.80;60.20
37658;DHT22;23500;53.268;8.308;2023-04-22T04:02:33;16.80;60.20
37658;DHT22;23500;53.268;8.308;2023-04-22T04:04:58;16.80;60.10
37658;DHT22;23500;53.268;8.308;2023-04-22T04:07:24;16.80;60.10
37658;DHT22;23500;53.268;8.308;2023-04-22T04:09:50;16.80;60.20
37658;DHT22;23500;53.268;8.308;2023-04-22T04:12:15;16.80;60.20
37658;DHT22;23500;53.268;8.308;2023-04-22T04:14:41;16.80;60.30
37658;DHT22;23500;53.268;8.308;2023-04-22T04:17:06;16.80;60.30
37658;DHT22;23500;53.268;8.308;2023-04-22T04:19:35;16.80;60.60
37658;DHT22;23500;53.268;8.308;2023-04-22T04:22:01;16.80;60.40
37658;DHT22;23500;53.268;8.308;2023-04-22T04:24:27;16.70;60.40
37658;DHT22;23500;53.268;8.308;2023-04-22T04:26:53;16.80;60.40
37658;DHT22;23500;53.268;8.308;2023-04-22T04:29:18;16.80;60.30
37658;DHT22;23500;53.268;8.308;2023-04-22T04:31:48;16.80;60.60
37658;DHT22;23500;53.268;8.308;2023-04-22T04:34:13;16.70;61.20
37658;DHT22;23500;53.268;8.308;2023-04-22T04:36:39;16.80;60.50
37658;DHT22;23500;53.268;8.308;2023-04-22T04:39:06;16.70;60.40
37658;DHT22;23500;53.268;8.308;2023-04-22T04:41:34;16.80;60.70
37658;DHT22;23500;53.268;8.308;2023-04-22T04:44:00;16.80;60.80
37658;DHT22;23500;53.268;8.308;2023-04-22T04:46:25;16.80;60.70
37658;DHT22;23500;53.268;8.308;2023-04-22T04:48:54;16.80;60.60
37658;DHT22;23500;53.268;8.308;2023-04-22T04:51:20;16.80;60.70
37658;DHT22;23500;53.268;8.308;2023-04-22T04:53:45;16.80;60.90
37658;DHT22;23500;53.268;8.308;2023-04-22T04:56:11;16.80;60.70
37658;DHT22;23500;53.268;8.308;2023-04-22T04:58:37;16.80;60.50
37658;DHT22;23500;53.268;8.308;2023-04-22T05:01:03;16.80;60.50
37658;DHT22;23500;53.268;8.308;2023-04-22T05:03:29;16.90;60.70
37658;DHT22;23500;53.268;8.308;2023-04-22T05:05:55;17.00;60.40
37658;DHT22;23500;53.268;8.308;2023-04-22T05:08:20;17.20;59.80
37658;DHT22;23500;53.268;8.308;2023-04-22T05:10:46;17.30;60.00
37658;DHT22;23500;53.268;8.308;2023-04-22T05:13:12;17.60;60.20
37658;DHT22;23500;53.268;8.308;2023-04-22T05:15:37;18.00;59.40
37658;DHT22;23500;53.268;8.308;2023-04-22T05:18:04;18.40;58.10
37658;DHT22;23500;53.268;8.308;2023-04-22T05:20:29;18.90;57.00
37658;DHT22;23500;53.268;8.308;2023-04-22T05:22:55;19.10;56.40
37658;DHT22;23500;53.268;8.308;2023-04-22T05:25:21;19.20;56.10
37658;DHT22;23500;53.268;8.308;2023-04-22T05:27:46;19.30;56.00
37658;DHT22;23500;53.268;8.308;2023-04-22T05:30:12;19.50;55.80
37658;DHT22;23500;53.268;8.308;2023-04-22T05:32:38;19.60;55.50
37658;DHT22;23500;53.268;8.308;2023-04-22T05:35:04;19.60;55.50
37658;DHT22;23500;53.268;8.308;2023-04-22T05:37:30;19.70;55.30
37658;DHT22;23500;53.268;8.308;2023-04-22T05:39:56;19.80;55.20
37658;DHT22;23500;53.268;8.308;2023-04-22T05:42:21;19.90;54.90
37658;DHT22;23500;53.268;8.308;2023-04-22T05:44:47;20.00;55.00
37658;DHT22;23500;53.268;8.308;2023-04-22T05:47:13;20.00;54.90
37658;DHT22;23500;53.268;8.308;2023-04-22T05:49:38;19.90;55.10
37658;DHT22;23500;53.268;8.308;2023-04-22T05:52:04;19.80;55.30
37658;DHT22;23500;53.268;8.308;2023-04-22T05:54:30;19.70;55.50
37658;DHT22;23500;53.268;8.308;2023-04-22T05:56:55;19.50;56.00
37658;DHT22;23500;53.268;8.308;2023-04-22T05:59:21;19.40;56.40
37658;DHT22;23500;53.268;8.308;2023-04-22T06:01:47;19.40;56.60
37658;DHT22;23500;53.268;8.308;2023-04-22T06:04:12;19.40;56.60
37658;DHT22;23500;53.268;8.308;2023-04-22T06:06:38;19.30;56.70
37658;DHT22;23500;53.268;8.308;2023-04-22T06:09:04;19.20;56.90
37658;DHT22;23500;53.268;8.308;2023-04-22T06:11:30;19.20;57.00
37658;DHT22;23500;53.268;8.308;2023-04-22T06:13:56;19.10;56.60
37658;DHT22;23500;53.268;8.308;2023-04-22T06:16:22;19.10;57.40
37658;DHT22;23500;53.268;8.308;2023-04-22T06:18:48;19.00;57.60
37658;DHT22;23500;53.268;8.308;2023-04-22T06:21:13;18.90;57.50
37658;DHT22;23500;53.268;8.308;2023-04-22T06:23:40;18.90;57.20
37658;DHT22;23500;53.268;8.308;2023-04-22T06:26:06;18.90;57.60
37658;DHT22;23500;53.268;8.308;2023-04-22T06:28:32;18.80;57.70
37658;DHT22;23500;53.268;8.308;2023-04-22T06:30:57;18.80;57.50
37658;DHT22;23500;53.268;8.308;2023-04-22T06:33:23;18.90;57.30
37658;DHT22;23500;53.268;8.308;2023-04-22T06:35:49;18.90;57.00
37658;DHT22;23500;53.268;8.308;2023-04-22T06:38:14;18.90;57.40
37658;DHT22;23500;53.268;8.308;2023-04-22T06:40:40;18.90;57.10
37658;DHT22;23500;53.268;8.308;2023-04-22T06:43:06;18.90;56.40
37658;DHT22;23500;53.268;8.308;2023-04-22T06:45:31;18.90;57.40
37658;DHT22;23500;53.268;8.308;2023-04-22T06:47:57;19.00;57.50
37658;DHT22;23500;53.268;8.308;2023-04-22T06:50:23;19.10;57.40
37658;DHT22;23500;53.268;8.308;2023-04-22T06:52:49;19.20;57.30
37658;DHT22;23500;53.268;8.308;2023-04-22T06:55:15;19.20;57.20
37658;DHT22;23500;53.268;8.308;2023-04-22T06:57:40;19.30;57.00
37658;DHT22;23500;53.268;8.308;2023-04-22T07:00:07;19.40;56.80
37658;DHT22;23500;53.268;8.308;2023-04-22T07:02:33;19.50;56.60
37658;DHT22;23500;53.268;8.308;2023-04-22T07:04:59;19.50;56.50
37658;DHT22;23500;53.268;8.308;2023-04-22T07:07:24;19.50;56.40
37658;DHT22;23500;53.268;8.308;2023-04-22T07:09:50;19.50;56.50
37658;DHT22;23500;53.268;8.308;2023-04-22T07:12:16;19.50;56.50
37658;DHT22;23500;53.268;8.308;2023-04-22T07:14:42;19.50;56.50
37658;DHT22;23500;53.268;8.308;2023-04-22T07:17:08;19.60;56.40
37658;DHT22;23500;53.268;8.308;2023-04-22T07:19:35;19.70;56.20
37658;DHT22;23500;53.268;8.308;2023-04-22T07:22:00;19.60;56.00
37658;DHT22;23500;53.268;8.308;2023-04-22T07:24:28;19.60;56.20
37658;DHT22;23500;53.268;8.308;2023-04-22T07:26:53;19.60;56.10
37658;DHT22;23500;53.268;8.308;2023-04-22T07:29:19;19.60;56.20
37658;DHT22;23500;53.268;8.308;2023-04-22T07:31:45;19.70;56.10
37658;DHT22;23500;53.268;8.308;2023-04-22T07:34:10;19.80;55.80
37658;DHT22;23500;53.268;8.308;2023-04-22T07:36:36;19.90;55.60
37658;DHT22;23500;53.268;8.308;2023-04-22T07:39:02;19.90;55.50
37658;DHT22;23500;53.268;8.308;2023-04-22T07:41:27;19.90;55.40
37658;DHT22;23500;53.268;8.308;2023-04-22T07:43:53;20.00;55.50
37658;DHT22;23500;53.268;8.308;2023-04-22T07:46:19;20.00;55.40
37658;DHT22;23500;53.268;8.308;2023-04-22T07:48:45;20.00;55.20
37658;DHT22;23500;53.268;8.308;2023-04-22T07:51:11;20.10;55.30
37658;DHT22;23500;53.268;8.308;2023-04-22T07:53:37;20.10;55.30
37658;DHT22;23500;53.268;8.308;2023-04-22T07:56:03;20.00;55.30
37658;DHT22;23500;53.268;8.308;2023-04-22T07:58:28;20.00;55.50
37658;DHT22;23500;53.268;8.308;2023-04-22T08:00:54;20.00;55.40
37658;DHT22;23500;53.268;8.308;2023-04-22T08:03:21;20.00;55.50
37658;DHT22;23500;53.268;8.308;2023-04-22T08:05:46;20.00;55.60
37658;DHT22;23500;53.268;8.308;2023-04-22T08:08:12;19.90;55.60
37658;DHT22;23500;53.268;8.308;2023-04-22T08:10:38;20.00;55.70
37658;DHT22;23500;53.268;8.308;2023-04-22T08:13:03;19.90;55.80
37658;DHT22;23500;53.268;8.308;2023-04-22T08:15:30;19.90;55.80
37658;DHT22;23500;53.268;8.308;2023-04-22T08:17:56;19.90;55.80
37658;DHT22;23500;53.268;8.308;2023-04-22T08:20:23;19.90;55.90
37658;DHT22;23500;53.268;8.308;2023-04-22T08:22:50;19.80;55.90
37658;DHT22;23500;53.268;8.308;2023-04-22T08:25:21;19.80;55.90
37658;DHT22;23500;53.268;8.308;2023-04-22T08:27:49;19.80;55.90
37658;DHT22;23500;53.268;8.308;2023-04-22T08:30:15;19.80;56.00
37658;DHT22;23500;53.268;8.308;2023-04-22T08:32:40;19.80;56.00
37658;DHT22;23500;53.268;8.308;2023-04-22T08:35:06;19.80;56.00
37658;DHT22;23500;53.268;8.308;2023-04-22T08:37:33;19.80;56.00
37658;DHT22;23500;53.268;8.308;2023-04-22T08:39:59;19.90;55.90
37658;DHT22;23500;53.268;8.308;2023-04-22T08:42:26;19.80;55.90
37658;DHT22;23500;53.268;8.308;2023-04-22T08:44:53;19.80;55.90
37658;DHT22;23500;53.268;8.308;2023-04-22T08:47:19;19.80;56.00
37658;DHT22;23500;53.268;8.308;2023-04-22T08:49:46;19.80;56.00
37658;DHT22;23500;53.268;8.308;2023-04-22T08:52:12;19.80;56.00
37658;DHT22;23500;53.268;8.308;2023-04-22T08:54:40;19.80;56.10
37658;DHT22;23500;53.268;8.308;2023-04-22T08:57:07;19.80;56.10
37658;DHT22;23500;53.268;8.308;2023-04-22T08:59:33;19.80;56.10
37658;DHT22;23500;53.268;8.308;2023-04-22T09:02:01;19.70;56.10
37658;DHT22;23500;53.268;8.308;2023-04-22T09:04:27;19.70;56.10
37658;DHT22;23500;53.268;8.308;2023-04-22T09:06:53;19.70;56.20
37658;DHT22;23500;53.268;8.308;2023-04-22T09:09:18;19.70;56.20
37658;DHT22;23500;53.268;8.308;2023-04-22T09:11:44;19.70;56.20
37658;DHT22;23500;53.268;8.308;2023-04-22T09:14:10;19.70;56.30
37658;DHT22;23500;53.268;8.308;2023-04-22T09:16:46;19.70;56.40
37658;DHT22;23500;53.268;8.308;2023-04-22T09:19:13;19.60;56.50
37658;DHT22;23500;53.268;8.308;2023-04-22T09:21:40;19.60;56.60
37658;DHT22;23500;53.268;8.308;2023-04-22T09:24:07;19.50;56.70
37658;DHT22;23500;53.268;8.308;2023-04-22T09:26:33;19.50;56.70
37658;DHT22;23500;53.268;8.308;2023-04-22T09:29:03;19.50;56.90
37658;DHT22;23500;53.268;8.308;2023-04-22T09:31:34;19.40;56.90
37658;DHT22;23500;53.268;8.308;2023-04-22T09:34:02;19.40;56.90
37658;DHT22;23500;53.268;8.308;2023-04-22T09:36:30;19.40;57.00
37658;DHT22;23500;53.268;8.308;2023-04-22T09:39:01;19.40;57.00
37658;DHT22;23500;53.268;8.308;2023-04-22T09:41:31;19.40;57.00
37658;DHT22;23500;53.268;8.308;2023-04-22T09:43:58;19.40;57.00
37658;DHT22;23500;53.268;8.308;2023-04-22T09:46:25;19.40;57.00
37658;DHT22;23500;53.268;8.308;2023-04-22T09:48:54;19.40;57.00
37658;DHT22;23500;53.268;8.308;2023-04-22T09:51:20;19.40;57.10
37658;DHT22;23500;53.268;8.308;2023-04-22T09:54:06;19.40;57.20
37658;DHT22;23500;53.268;8.308;2023-04-22T09:59:09;19.30;57.40
37658;DHT22;23500;53.268;8.308;2023-04-22T10:01:36;19.30;57.60
37658;DHT22;23500;53.268;8.308;2023-04-22T10:04:03;19.30;57.70
37658;DHT22;23500;53.268;8.308;2023-04-22T10:06:29;19.30;57.80
37658;DHT22;23500;53.268;8.308;2023-04-22T10:09:01;19.30;57.70
37658;DHT22;23500;53.268;8.308;2023-04-22T10:11:27;19.30;57.80
37658;DHT22;23500;53.268;8.308;2023-04-22T10:13:53;19.30;57.80
37658;DHT22;23500;53.268;8.308;2023-04-22T10:16:20;19.30;57.80
37658;DHT22;23500;53.268;8.308;2023-04-22T10:18:47;19.30;57.90
37658;DHT22;23500;53.268;8.308;2023-04-22T10:21:13;19.30;57.90
37658;DHT22;23500;53.268;8.308;2023-04-22T10:23:45;19.30;57.90
37658;DHT22;23500;53.268;8.308;2023-04-22T10:26:11;19.30;58.00
37658;DHT22;23500;53.268;8.308;2023-04-22T10:28:42;19.30;58.00
37658;DHT22;23500;53.268;8.308;2023-04-22T10:31:36;19.30;58.00
37658;DHT22;23500;53.268;8.308;2023-04-22T10:34:12;19.30;58.10
37658;DHT22;23500;53.268;8.308;2023-04-22T10:36:54;19.30;58.00
37658;DHT22;23500;53.268;8.308;2023-04-22T10:39:20;19.30;58.00
37658;DHT22;23500;53.268;8.308;2023-04-22T10:42:10;19.30;58.10
37658;DHT22;23500;53.268;8.308;2023-04-22T10:44:50;19.30;58.10
37658;DHT22;23500;53.268;8.308;2023-04-22T10:47:29;19.30;58.20
37658;DHT22;23500;53.268;8.308;2023-04-22T10:50:25;19.40;58.20
37658;DHT22;23500;53.268;8.308;2023-04-22T10:52:55;19.30;58.10
37658;DHT22;23500;53.268;8.308;2023-04-22T10:55:22;19.40;58.20
37658;DHT22;23500;53.268;8.308;2023-04-22T10:57:50;19.30;58.20
37658;DHT22;23500;53.268;8.308;2023-04-22T11:00:37;19.40;58.30
37658;DHT22;23500;53.268;8.308;2023-04-22T11:05:31;19.40;58.10
37658;DHT22;23500;53.268;8.308;2023-04-22T11:08:14;19.40;58.20
37658;DHT22;23500;53.268;8.308;2023-04-22T11:10:44;19.40;58.10
37658;DHT22;23500;53.268;8.308;2023-04-22T11:13:15;19.40;58.20
37658;DHT22;23500;53.268;8.308;2023-04-22T11:15:43;19.40;58.10
37658;DHT22;23500;53.268;8.308;2023-04-22T11:18:16;19.40;58.20
37658;DHT22;23500;53.268;8.308;2023-04-22T11:20:42;19.40;58.20
37658;DHT22;23500;53.268;8.308;2023-04-22T11:23:08;19.40;58.20
37658;DHT22;23500;53.268;8.308;2023-04-22T11:25:34;19.50;58.10
37658;DHT22;23500;53.268;8.308;2023-04-22T11:27:59;19.50;58.20
37658;DHT22;23500;53.268;8.308;2023-04-22T11:30:26;19.50;58.10
37658;DHT22;23500;53.268;8.308;2023-04-22T11:32:57;19.50;58.10
37658;DHT22;23500;53.268;8.308;2023-04-22T11:35:29;19.50;58.20
37658;DHT22;23500;53.268;8.308;2023-04-22T11:38:00;19.60;58.10
37658;DHT22;23500;53.268;8.308;2023-04-22T11:40:28;19.60;58.30
37658;DHT22;23500;53.268;8.308;2023-04-22T11:42:56;19.50;58.20
37658;DHT22;23500;53.268;8.308;2023-04-22T11:45:22;19.60;58.30
37658;DHT22;23500;53.268;8.308;2023-04-22T11:47:49;19.50;58.30
37658;DHT22;23500;53.268;8.308;2023-04-22T11:50:16;19.50;58.30
37658;DHT22;23500;53.268;8.308;2023-04-22T11:52:53;19.50;58.40
37658;DHT22;23500;53.268;8.308;2023-04-22T11:55:30;19.50;58.40
37658;DHT22;23500;53.268;8.308;2023-04-22T11:58:00;19.50;58.50
37658;DHT22;23500;53.268;8.308;2023-04-22T12:00:30;19.50;58.50
37658;DHT22;23500;53.268;8.308;2023-04-22T12:03:06;19.50;58.60
37658;DHT22;23500;53.268;8.308;2023-04-22T12:05:40;19.50;58.40
37658;DHT22;23500;53.268;8.308;2023-04-22T12:10:43;19.60;58.30
37658;DHT22;23500;53.268;8.308;2023-04-22T12:13:26;19.70;58.20
37658;DHT22;23500;53.268;8.308;2023-04-22T12:15:55;19.70;58.30
37658;DHT22;23500;53.268;8.308;2023-04-22T12:23:59;19.70;58.20
37658;DHT22;23500;53.268;8.308;2023-04-22T12:26:26;19.70;58.30
37658;DHT22;23500;53.268;8.308;2023-04-22T12:28:53;19.70;58.20
37658;DHT22;23500;53.268;8.308;2023-04-22T12:31:19;19.70;58.10
37658;DHT22;23500;53.268;8.308;2023-04-22T12:33:46;19.80;58.20
37658;DHT22;23500;53.268;8.308;2023-04-22T12:36:12;19.80;58.10
37658;DHT22;23500;53.268;8.308;2023-04-22T12:38:38;19.80;58.20
37658;DHT22;23500;53.268;8.308;2023-04-22T12:41:05;19.70;58.30
37658;DHT22;23500;53.268;8.308;2023-04-22T12:43:32;19.70;58.30
37658;DHT22;23500;53.268;8.308;2023-04-22T12:46:03;19.70;58.60
37658;DHT22;23500;53.268;8.308;2023-04-22T12:48:29;19.60;58.60
37658;DHT22;23500;53.268;8.308;2023-04-22T12:50:55;19.60;58.70
37658;DHT22;23500;53.268;8.308;2023-04-22T12:53:22;19.60;58.70
37658;DHT22;23500;53.268;8.308;2023-04-22T12:55:48;19.60;58.80
37658;DHT22;23500;53.268;8.308;2023-04-22T12:58:14;19.70;58.80
37658;DHT22;23500;53.268;8.308;2023-04-22T13:00:40;19.70;58.70
37658;DHT22;23500;53.268;8.308;2023-04-22T13:03:05;19.70;58.60
37658;DHT22;23500;53.268;8.308;2023-04-22T13:05:31;19.70;58.70
37658;DHT22;23500;53.268;8.308;2023-04-22T13:07:57;19.70;58.60
37658;DHT22;23500;53.268;8.308;2023-04-22T13:10:23;19.70;58.60
37658;DHT22;23500;53.268;8.308;2023-04-22T13:12:52;19.70;58.40
37658;DHT22;23500;53.268;8.308;2023-04-22T13:15:19;19.70;58.50
37658;DHT22;23500;53.268;8.308;2023-04-22T13:17:46;19.70;58.40
37658;DHT22;23500;53.268;8.308;2023-04-22T13:20:12;19.70;58.40
37658;DHT22;23500;53.268;8.308;2023-04-22T13:22:39;19.70;58.50
37658;DHT22;23500;53.268;8.308;2023-04-22T13:25:07;19.70;58.40
37658;DHT22;23500;53.268;8.308;2023-04-22T13:27:33;19.70;58.50
37658;DHT22;23500;53.268;8.308;2023-04-22T13:29:58;19.80;58.50
37658;DHT22;23500;53.268;8.308;2023-04-22T13:32:24;19.80;58.30
37658;DHT22;23500;53.268;8.308;2023-04-22T13:34:50;19.90;58.20
37658;DHT22;23500;53.268;8.308;2023-04-22T13:37:15;19.90;58.10
37658;DHT22;23500;53.268;8.308;2023-04-22T13:39:43;20.00;58.00
37658;DHT22;23500;53.268;8.308;2023-04-22T13:42:09;20.00;57.90
37658;DHT22;23500;53.268;8.308;2023-04-22T13:44:35;19.90;57.90
37658;DHT22;23500;53.268;8.308;2023-04-22T13:47:01;20.00;58.00
37658;DHT22;23500;53.268;8.308;2023-04-22T13:49:27;19.90;58.00
37658;DHT22;23500;53.268;8.308;2023-04-22T13:51:53;19.90;58.00
37658;DHT22;23500;53.268;8.308;2023-04-22T13:54:19;19.90;58.10
37658;DHT22;23500;53.268;8.308;2023-04-22T13:56:45;19.80;58.30
37658;DHT22;23500;53.268;8.308;2023-04-22T13:59:10;19.80;58.40
37658;DHT22;23500;53.268;8.308;2023-04-22T14:01:37;19.80;58.40
37658;DHT22;23500;53.268;8.308;2023-04-22T14:04:03;19.70;58.40
37658;DHT22;23500;53.268;8.308;2023-04-22T14:06:29;19.70;58.50
37658;DHT22;23500;53.268;8.308;2023-04-22T14:08:55;19.80;58.60
37658;DHT22;23500;53.268;8.308;2023-04-22T14:11:20;19.80;58.40
37658;DHT22;23500;53.268;8.308;2023-04-22T14:13:46;19.80;58.40
37658;DHT22;23500;53.268;8.308;2023-04-22T14:16:12;19.80;58.40
37658;DHT22;23500;53.268;8.308;2023-04-22T14:18:39;19.80;58.40
37658;DHT22;23500;53.268;8.308;2023-04-22T14:21:06;19.80;58.40
37658;DHT22;23500;53.268;8.308;2023-04-22T14:23:37;19.80;58.40
37658;DHT22;23500;53.268;8.308;2023-04-22T14:26:05;19.80;58.50
37658;DHT22;23500;53.268;8.308;2023-04-22T14:28:31;19.80;58.60
37658;DHT22;23500;53.268;8.308;2023-04-22T14:30:57;19.70;58.60
37658;DHT22;23500;53.268;8.308;2023-04-22T14:33:23;19.70;58.60
37658;DHT22;23500;53.268;8.308;2023-04-22T14:35:50;19.70;58.70
37658;DHT22;23500;53.268;8.308;2023-04-22T14:38:20;19.70;58.80
37658;DHT22;23500;53.268;8.308;2023-04-22T14:40:55;19.70;58.80
37658;DHT22;23500;53.268;8.308;2023-04-22T14:43:21;19.70;58.80
37658;DHT22;23500;53.268;8.308;2023-04-22T14:45:46;19.60;58.80
37658;DHT22;23500;53.268;8.308;2023-04-22T14:48:12;19.60;59.00
37658;DHT22;23500;53.268;8.308;2023-04-22T14:50:38;19.60;59.00
37658;DHT22;23500;53.268;8.308;2023-04-22T14:53:04;19.60;58.90
37658;DHT22;23500;53.268;8.308;2023-04-22T14:55:30;19.60;58.90
37658;DHT22;23500;53.268;8.308;2023-04-22T14:57:56;19.70;58.90
37658;DHT22;23500;53.268;8.308;2023-04-22T15:00:23;19.70;58.90
37658;DHT22;23500;53.268;8.308;2023-04-22T15:02:49;19.70;58.90
37658;DHT22;23500;53.268;8.308;2023-04-22T15:05:15;19.60;58.90
37658;DHT22;23500;53.268;8.308;2023-04-22T15:07:40;19.60;58.90
37658;DHT22;23500;53.268;8.308;2023-04-22T15:10:07;19.60;59.00
37658;DHT22;23500;53.268;8.308;2023-04-22T15:12:32;19.60;59.00
37658;DHT22;23500;53.268;8.308;2023-04-22T15:14:58;19.70;59.00
37658;DHT22;23500;53.268;8.308;2023-04-22T15:17:24;19.70;58.90
37658;DHT22;23500;53.268;8.308;2023-04-22T15:19:49;19.70;58.80
37658;DHT22;23500;53.268;8.308;2023-04-22T15:22:17;19.70;58.80
37658;DHT22;23500;53.268;8.308;2023-04-22T15:24:43;19.70;58.80
37658;DHT22;23500;53.268;8.308;2023-04-22T15:27:09;19.70;58.80
37658;DHT22;23500;53.268;8.308;2023-04-22T15:29:34;19.70;58.80
37658;DHT22;23500;53.268;8.308;2023-04-22T15:32:00;19.70;58.70
37658;DHT22;23500;53.268;8.308;2023-04-22T15:34:26;19.80;58.80
37658;DHT22;23500;53.268;8.308;2023-04-22T15:36:52;19.70;58.70
37658;DHT22;23500;53.268;8.308;2023-04-22T15:39:18;19.80;58.80
37658;DHT22;23500;53.268;8.308;2023-04-22T15:41:43;19.70;58.80